createdAt,value
2018-05-14T00:01:42.335Z,48.10
2018-05-14T00:04:08.758Z,48.20
2018-05-14T00:06:35.975Z,48.40
2018-05-14T00:09:02.526Z,48.30
2018-05-14T00:11:29.055Z,48.30
2018-05-14T00:13:56.283Z,48.50
2018-05-14T00:16:22.787Z,48.40
2018-05-14T00:18:49.947Z,48.60
2018-05-14T00:21:17.103Z,48.70
2018-05-14T00:23:43.529Z,48.60
2018-05-14T00:26:10.047Z,48.70
2018-05-14T00:28:36.485Z,48.80
2018-05-14T00:31:03.618Z,49.00
2018-05-14T00:33:30.053Z,49.00
2018-05-14T00:35:56.586Z,49.10
2018-05-14T00:38:23.753Z,49.30
2018-05-14T00:40:51.032Z,49.40
2018-05-14T00:43:18.306Z,49.50
2018-05-14T00:45:45.500Z,49.50
2018-05-14T00:48:11.898Z,49.60
2018-05-14T00:50:38.380Z,49.70
2018-05-14T00:53:05.665Z,49.90
2018-05-14T00:55:32.799Z,50.10
2018-05-14T00:57:59.283Z,50.10
2018-05-14T01:00:26.476Z,50.50
2018-05-14T01:02:52.891Z,50.30
2018-05-14T01:05:19.320Z,50.50
2018-05-14T01:07:45.840Z,50.70
2018-05-14T01:10:12.232Z,50.80
2018-05-14T01:12:38.640Z,51.00
2018-05-14T01:15:07.451Z,51.30
2018-05-14T01:17:34.578Z,51.40
2018-05-14T01:20:01.099Z,51.40
2018-05-14T01:22:27.501Z,51.50
2018-05-14T01:24:59.887Z,51.70
2018-05-14T01:27:26.385Z,51.90
2018-05-14T01:29:53.564Z,52.10
2018-05-14T01:32:20.117Z,52.10
2018-05-14T01:34:46.674Z,52.20
2018-05-14T01:37:13.844Z,52.40
2018-05-14T01:39:40.980Z,52.40
2018-05-14T01:42:07.440Z,52.40
2018-05-14T01:44:34.470Z,52.50
2018-05-14T01:47:00.870Z,52.70
2018-05-14T01:49:27.458Z,52.70
2018-05-14T01:51:53.893Z,52.80
2018-05-14T01:54:20.346Z,52.90
2018-05-14T01:56:47.552Z,53.10
2018-05-14T01:59:14.101Z,53.00
2018-05-14T02:01:41.335Z,53.70
2018-05-14T02:04:07.709Z,53.10
2018-05-14T02:06:34.105Z,53.20
2018-05-14T02:09:00.641Z,53.80
2018-05-14T02:11:27.903Z,53.40
2018-05-14T02:13:55.071Z,53.40
2018-05-14T02:16:22.299Z,53.40
2018-05-14T02:18:48.722Z,53.40
2018-05-14T02:21:15.993Z,53.50
2018-05-14T02:23:43.208Z,53.60
2018-05-14T02:26:09.724Z,53.50
2018-05-14T02:28:36.882Z,53.70
2018-05-14T02:31:04.032Z,53.70
2018-05-14T02:33:30.424Z,53.70
2018-05-14T02:35:57.617Z,53.80
2018-05-14T02:38:24.032Z,53.80
2018-05-14T02:40:50.474Z,53.80
2018-05-14T02:43:16.891Z,53.80
2018-05-14T02:45:43.301Z,53.40
2018-05-14T02:48:10.584Z,54.10
2018-05-14T02:50:37.750Z,54.20
2018-05-14T02:53:04.998Z,54.20
2018-05-14T02:55:31.426Z,54.10
2018-05-14T02:57:57.885Z,54.30
2018-05-14T03:00:24.473Z,54.30
2018-05-14T03:02:50.875Z,54.30
2018-05-14T03:05:17.299Z,54.30
2018-05-14T03:07:43.719Z,54.40
2018-05-14T03:10:10.125Z,54.50
2018-05-14T03:12:37.315Z,54.70
2018-05-14T03:15:03.751Z,54.60
2018-05-14T03:17:31.013Z,54.80
2018-05-14T03:19:57.424Z,55.40
2018-05-14T03:22:23.862Z,54.90
2018-05-14T03:24:50.310Z,55.00
2018-05-14T03:27:16.737Z,55.00
2018-05-14T03:29:43.906Z,55.50
2018-05-14T03:32:10.392Z,55.10
2018-05-14T03:34:36.945Z,55.10
2018-05-14T03:37:03.402Z,55.20
2018-05-14T03:39:30.552Z,55.20
2018-05-14T03:41:57.704Z,55.30
2018-05-14T03:44:24.173Z,55.30
2018-05-14T03:46:51.382Z,55.20
2018-05-14T03:49:17.831Z,55.20
2018-05-14T03:51:44.251Z,55.20
2018-05-14T03:54:11.404Z,55.20
2018-05-14T03:56:37.813Z,55.80
2018-05-14T03:59:17.361Z,55.40
2018-05-14T04:01:57.430Z,55.40
2018-05-14T04:04:36.035Z,55.40
2018-05-14T04:07:03.201Z,55.50
2018-05-14T04:09:30.335Z,55.90
2018-05-14T04:11:57.477Z,55.30
2018-05-14T04:14:25.427Z,55.30
2018-05-14T04:16:51.911Z,55.20
2018-05-14T04:19:19.101Z,55.00
2018-05-14T04:21:45.518Z,55.00
2018-05-14T04:24:12.683Z,55.40
2018-05-14T04:26:39.167Z,55.40
2018-05-14T04:29:05.609Z,54.80
2018-05-14T04:31:33.852Z,51.30
2018-05-14T04:34:00.336Z,51.20
2018-05-14T04:36:26.832Z,49.30
2018-05-14T04:38:53.287Z,47.20
2018-05-14T04:41:20.524Z,44.40
2018-05-14T04:43:46.924Z,44.40
2018-05-14T04:46:13.481Z,43.10
2018-05-14T04:48:39.926Z,42.00
2018-05-14T04:51:07.112Z,40.60
2018-05-14T04:53:33.536Z,40.60
2018-05-14T04:56:00.125Z,39.60
2018-05-14T04:58:26.578Z,39.00
2018-05-14T05:00:53.742Z,38.10
2018-05-14T05:03:20.897Z,37.30
2018-05-14T05:05:47.323Z,37.30
2018-05-14T05:08:13.816Z,36.50
2018-05-14T05:10:41.598Z,35.40
2018-05-14T05:13:08.898Z,35.10
2018-05-14T05:15:35.559Z,35.10
2018-05-14T05:18:02.028Z,34.60
2018-05-14T05:20:28.463Z,34.20
2018-05-14T05:22:55.872Z,33.80
2018-05-14T05:25:23.097Z,32.90
2018-05-14T05:27:50.295Z,32.40
2018-05-14T05:30:16.851Z,32.40
2018-05-14T05:32:44.429Z,31.40
2018-05-14T05:35:10.940Z,31.40
2018-05-14T05:37:37.457Z,31.10
2018-05-14T05:40:03.947Z,30.20
2018-05-14T05:42:30.915Z,29.50
2018-05-14T05:44:57.343Z,29.10
2018-05-14T05:47:23.822Z,28.60
2018-05-14T05:49:50.408Z,28.40
2018-05-14T05:52:17.200Z,28.10
2018-05-14T05:54:43.944Z,28.20
2018-05-14T05:57:10.418Z,28.00
2018-05-14T05:59:37.787Z,28.60
2018-05-14T06:02:04.293Z,28.50
2018-05-14T06:04:30.732Z,29.50
2018-05-14T06:06:57.521Z,29.70
2018-05-14T06:09:24.236Z,28.80
2018-05-14T06:11:51.518Z,28.60
2018-05-14T06:14:18.972Z,28.10
2018-05-14T06:16:46.179Z,27.30
2018-05-14T06:19:12.599Z,27.30
2018-05-14T06:21:39.976Z,26.10
2018-05-14T06:24:07.517Z,26.10
2018-05-14T06:26:34.932Z,25.80
2018-05-14T06:29:02.504Z,25.50
2018-05-14T06:31:29.209Z,25.50
2018-05-14T06:33:56.216Z,25.70
2018-05-14T06:36:23.434Z,25.50
2018-05-14T06:38:50.010Z,25.60
2018-05-14T06:41:17.482Z,25.50
2018-05-14T06:43:44.202Z,25.10
2018-05-14T06:46:10.708Z,24.60
2018-05-14T06:48:38.101Z,24.80
2018-05-14T06:51:05.220Z,24.30
2018-05-14T06:53:31.896Z,24.30
2018-05-14T06:55:59.340Z,23.90
2018-05-14T06:58:25.907Z,23.40
2018-05-14T07:00:52.325Z,22.60
2018-05-14T07:03:18.869Z,22.10
2018-05-14T07:05:46.192Z,22.30
2018-05-14T07:08:13.582Z,22.40
2018-05-14T07:10:40.145Z,21.90
2018-05-14T07:13:06.848Z,21.50
2018-05-14T07:15:33.355Z,21.80
2018-05-14T07:18:00.565Z,22.60
2018-05-14T07:20:27.127Z,22.60
2018-05-14T07:22:53.690Z,22.60
2018-05-14T07:25:20.244Z,22.50
2018-05-14T07:27:46.690Z,22.20
2018-05-14T07:30:13.181Z,22.30
2018-05-14T07:32:39.608Z,22.50
2018-05-14T07:35:06.081Z,22.60
2018-05-14T07:37:33.520Z,23.10
2018-05-14T07:40:00.223Z,23.40
2018-05-14T07:42:26.655Z,23.70
2018-05-14T07:44:53.606Z,23.00
2018-05-14T07:47:20.201Z,22.50
2018-05-14T07:49:46.882Z,22.20
2018-05-14T07:52:13.362Z,22.20
2018-05-14T07:54:40.039Z,22.60
2018-05-14T07:57:06.533Z,22.80
2018-05-14T07:59:33.009Z,23.00
2018-05-14T08:01:59.787Z,22.50
2018-05-14T08:04:26.223Z,22.40
2018-05-14T08:06:52.663Z,22.50
2018-05-14T08:09:19.335Z,22.20
2018-05-14T08:11:46.207Z,22.30
2018-05-14T08:14:12.613Z,22.40
2018-05-14T08:16:39.639Z,22.70
2018-05-14T08:19:06.399Z,22.80
2018-05-14T08:21:32.836Z,23.70
2018-05-14T08:23:59.398Z,23.30
2018-05-14T08:26:25.952Z,23.90
2018-05-14T08:28:53.771Z,25.70
2018-05-14T08:31:20.811Z,25.60
2018-05-14T08:33:47.263Z,26.60
2018-05-14T08:36:14.160Z,27.90
2018-05-14T08:38:40.616Z,28.90
2018-05-14T08:41:07.022Z,29.60
2018-05-14T08:43:33.720Z,30.90
2018-05-14T08:46:00.714Z,31.30
2018-05-14T08:48:27.360Z,31.90
2018-05-14T08:50:54.034Z,33.50
2018-05-14T08:53:21.280Z,33.60
2018-05-14T08:55:47.975Z,33.50
2018-05-14T08:58:14.421Z,33.90
2018-05-14T09:00:41.801Z,34.50
2018-05-14T09:03:09.021Z,35.00
2018-05-14T09:05:35.612Z,35.40
2018-05-14T09:08:02.167Z,35.60
2018-05-14T09:10:28.671Z,36.20
2018-05-14T09:12:56.189Z,36.00
2018-05-14T09:15:22.845Z,36.10
2018-05-14T09:17:49.318Z,36.00
2018-05-14T09:20:15.828Z,35.70
2018-05-14T09:22:42.262Z,35.40
2018-05-14T09:25:09.658Z,36.60
2018-05-14T09:27:36.920Z,36.70
2018-05-14T09:30:03.424Z,36.60
2018-05-14T09:32:30.578Z,36.10
2018-05-14T09:34:57.256Z,35.70
2018-05-14T09:37:23.928Z,36.30
2018-05-14T09:39:50.396Z,36.00
2018-05-14T09:42:17.039Z,36.00
2018-05-14T09:44:44.524Z,35.40
2018-05-14T09:47:11.182Z,35.40
2018-05-14T09:49:38.340Z,35.30
2018-05-14T09:52:04.813Z,35.30
2018-05-14T09:54:31.225Z,34.80
2018-05-14T09:56:58.543Z,33.60
2018-05-14T09:59:25.129Z,33.60
2018-05-14T10:01:51.893Z,33.60
2018-05-14T10:04:18.331Z,33.90
2018-05-14T10:06:45.125Z,34.40
2018-05-14T10:09:11.641Z,35.00
2018-05-14T10:11:38.061Z,34.30
2018-05-14T10:14:04.843Z,34.60
2018-05-14T10:16:31.310Z,34.90
2018-05-14T10:18:58.390Z,34.60
2018-05-14T10:21:25.180Z,33.70
2018-05-14T10:23:51.608Z,34.30
2018-05-14T10:26:18.043Z,34.30
2018-05-14T10:28:44.625Z,34.60
2018-05-14T10:31:11.180Z,36.00
2018-05-14T10:33:38.172Z,38.50
2018-05-14T10:36:04.707Z,39.00
2018-05-14T10:38:31.486Z,40.10
2018-05-14T10:40:58.030Z,41.40
2018-05-14T10:43:24.525Z,42.20
2018-05-14T10:45:51.309Z,42.80
2018-05-14T10:48:18.611Z,41.40
2018-05-14T10:50:45.823Z,40.90
2018-05-14T10:53:12.281Z,40.80
2018-05-14T10:55:38.812Z,40.90
2018-05-14T10:59:05.864Z,40.70
2018-05-14T11:01:32.304Z,39.80
2018-05-14T11:03:58.916Z,39.90
2018-05-14T11:06:25.339Z,40.50
2018-05-14T11:08:51.844Z,40.20
2018-05-14T11:11:19.004Z,40.20
2018-05-14T11:13:46.159Z,40.20
2018-05-14T11:16:12.562Z,40.10
2018-05-14T11:18:39.055Z,40.00
2018-05-14T11:21:05.611Z,40.20
2018-05-14T11:23:32.012Z,40.30
2018-05-14T11:25:58.574Z,40.20
2018-05-14T11:28:25.755Z,40.40
2018-05-14T11:30:52.200Z,40.40
2018-05-14T11:33:19.387Z,40.40
2018-05-14T11:35:45.871Z,40.40
2018-05-14T11:38:12.316Z,40.50
2018-05-14T11:40:38.727Z,40.50
2018-05-14T11:43:05.785Z,41.00
2018-05-14T11:45:32.225Z,41.00
2018-05-14T11:47:58.636Z,40.20
2018-05-14T11:50:25.184Z,40.20
2018-05-14T11:52:51.616Z,39.70
2018-05-14T11:55:17.999Z,40.30
2018-05-14T11:57:44.438Z,40.50
2018-05-14T12:00:11.624Z,39.60
2018-05-14T12:02:38.030Z,39.60
2018-05-14T12:05:04.740Z,39.40
2018-05-14T12:07:31.898Z,39.60
2018-05-14T12:09:59.261Z,39.50
2018-05-14T12:12:25.728Z,39.50
2018-05-14T12:14:53.022Z,39.40
2018-05-14T12:17:20.294Z,39.40
2018-05-14T12:19:47.597Z,39.60
2018-05-14T12:22:13.997Z,39.70
2018-05-14T12:24:40.440Z,39.20
2018-05-14T12:27:06.937Z,39.10
2018-05-14T12:29:34.111Z,39.30
2018-05-14T12:32:01.318Z,38.70
2018-05-14T12:34:27.804Z,38.70
2018-05-14T12:36:54.243Z,38.90
2018-05-14T12:39:20.619Z,38.00
2018-05-14T12:41:47.076Z,38.20
2018-05-14T12:44:13.541Z,37.70
2018-05-14T12:46:39.995Z,37.50
2018-05-14T12:49:06.418Z,37.70
2018-05-14T12:51:32.946Z,37.70
2018-05-14T12:53:59.998Z,37.60
2018-05-14T12:56:27.214Z,38.20
2018-05-14T12:58:53.688Z,38.20
2018-05-14T13:01:20.340Z,38.10
2018-05-14T13:03:46.760Z,37.40
2018-05-14T13:06:13.196Z,38.30
2018-05-14T13:08:40.332Z,37.90
2018-05-14T13:11:06.859Z,37.90
2018-05-14T13:13:33.292Z,38.10
2018-05-14T13:16:00.460Z,38.70
2018-05-14T13:18:27.648Z,39.30
2018-05-14T13:20:54.107Z,39.30
2018-05-14T13:23:20.755Z,39.00
2018-05-14T13:25:47.931Z,39.00
2018-05-14T13:28:14.323Z,39.00
2018-05-14T13:30:40.805Z,39.20
2018-05-14T13:33:07.295Z,39.70
2018-05-14T13:35:33.895Z,39.50
2018-05-14T13:38:00.460Z,39.30
2018-05-14T13:40:26.899Z,39.30
2018-05-14T13:42:53.702Z,38.40
2018-05-14T13:45:20.727Z,38.30
2018-05-14T13:47:47.262Z,38.30
2018-05-14T13:50:13.759Z,38.20
2018-05-14T13:52:40.274Z,38.00
2018-05-14T13:55:07.522Z,38.50
2018-05-14T13:57:33.956Z,38.50
2018-05-14T14:00:00.385Z,38.20
2018-05-14T14:02:26.792Z,38.50
2018-05-14T14:04:53.313Z,38.20
2018-05-14T14:07:19.767Z,38.00
2018-05-14T14:09:46.219Z,37.80
2018-05-14T14:12:12.744Z,38.00
2018-05-14T14:14:39.212Z,38.10
2018-05-14T14:17:05.670Z,38.30
2018-05-14T14:19:32.214Z,37.60
2018-05-14T14:21:59.490Z,37.90
2018-05-14T14:24:26.776Z,37.90
2018-05-14T14:26:53.224Z,37.90
2018-05-14T14:29:20.497Z,37.30
2018-05-14T14:31:47.823Z,37.30
2018-05-14T14:34:14.943Z,37.30
2018-05-14T14:36:42.127Z,36.30
2018-05-14T14:39:08.572Z,36.30
2018-05-14T14:41:35.025Z,36.30
2018-05-14T14:44:02.194Z,36.70
2018-05-14T14:46:29.523Z,36.40
2018-05-14T14:48:55.970Z,36.40
2018-05-14T14:51:22.427Z,36.20
2018-05-14T14:53:48.947Z,36.70
2018-05-14T14:56:17.033Z,36.90
2018-05-14T14:58:44.315Z,37.00
2018-05-14T15:01:11.588Z,37.00
2018-05-14T15:03:38.048Z,37.00
2018-05-14T15:06:04.510Z,37.10
2018-05-14T15:08:31.023Z,37.20
2018-05-14T15:10:57.518Z,37.70
2018-05-14T15:13:24.711Z,38.90
2018-05-14T15:15:51.164Z,38.90
2018-05-14T15:18:17.602Z,39.20
2018-05-14T15:20:44.877Z,39.80
2018-05-14T15:23:12.042Z,39.70
2018-05-14T15:25:38.812Z,39.70
2018-05-14T15:28:05.374Z,40.00
2018-05-14T15:30:32.032Z,40.30
2018-05-14T15:32:59.216Z,41.00
2018-05-14T15:35:25.665Z,40.90
2018-05-14T15:37:52.218Z,41.20
2018-05-14T15:40:18.829Z,41.30
2018-05-14T15:42:45.641Z,41.20
2018-05-14T15:45:12.843Z,41.90
2018-05-14T15:47:39.212Z,41.90
2018-05-14T15:50:05.811Z,42.20
2018-05-14T15:52:32.285Z,42.00
2018-05-14T15:54:59.440Z,42.30
2018-05-14T15:57:26.634Z,42.10
2018-05-14T15:59:53.188Z,42.70
2018-05-14T16:02:20.464Z,42.00
2018-05-14T16:04:46.894Z,41.90
2018-05-14T16:07:13.509Z,42.40
2018-05-14T16:09:40.019Z,42.50
2018-05-14T16:12:06.486Z,42.70
2018-05-14T16:14:33.705Z,42.60
2018-05-14T16:17:00.138Z,42.50
2018-05-14T16:19:26.684Z,42.60
2018-05-14T16:21:53.915Z,42.70
2018-05-14T16:24:20.359Z,42.70
2018-05-14T16:26:46.973Z,42.20
2018-05-14T16:29:14.865Z,42.40
2018-05-14T16:31:41.409Z,42.40
2018-05-14T16:34:09.044Z,42.30
2018-05-14T16:36:35.531Z,42.30
2018-05-14T16:39:01.977Z,42.40
2018-05-14T16:41:28.415Z,42.50
2018-05-14T16:43:54.870Z,42.40
2018-05-14T16:46:21.382Z,42.70
2018-05-14T16:48:48.582Z,42.50
2018-05-14T16:51:15.094Z,42.40
2018-05-14T16:53:42.268Z,42.50
2018-05-14T16:56:09.430Z,42.50
2018-05-14T16:58:36.584Z,42.60
2018-05-14T17:01:03.106Z,42.60
2018-05-14T17:03:29.553Z,42.40
2018-05-14T17:05:56.613Z,42.40
2018-05-14T17:08:23.890Z,42.50
2018-05-14T17:10:51.064Z,42.60
2018-05-14T17:13:17.620Z,42.60
2018-05-14T17:15:44.799Z,43.20
2018-05-14T17:18:11.232Z,42.60
2018-05-14T17:20:37.710Z,42.90
2018-05-14T17:23:04.179Z,42.80
2018-05-14T17:25:31.216Z,42.80
2018-05-14T17:27:58.383Z,43.00
2018-05-14T17:30:24.864Z,42.90
2018-05-14T17:32:51.706Z,43.30
2018-05-14T17:35:19.875Z,43.50
2018-05-14T17:37:46.402Z,43.50
2018-05-14T17:40:12.859Z,43.80
2018-05-14T17:42:39.313Z,44.10
2018-05-14T17:45:05.953Z,44.20
2018-05-14T17:47:34.266Z,44.30
2018-05-14T17:50:00.844Z,44.30
2018-05-14T17:52:27.302Z,44.50
2018-05-14T17:57:11.844Z,44.80
2018-05-14T17:59:38.450Z,45.00
2018-05-14T18:02:05.988Z,45.20
2018-05-14T18:04:32.441Z,45.10
2018-05-14T18:06:58.952Z,45.30
2018-05-14T18:09:27.410Z,45.30
2018-05-14T18:11:54.211Z,45.40
2018-05-14T18:14:21.337Z,45.60
2018-05-14T18:16:48.361Z,45.70
2018-05-14T18:19:14.907Z,45.70
2018-05-14T18:21:44.468Z,45.70
2018-05-14T18:24:10.992Z,45.80
2018-05-14T18:26:44.497Z,46.20
2018-05-14T18:29:12.287Z,46.20
2018-05-14T18:31:45.703Z,46.30
2018-05-14T18:34:16.596Z,46.30
2018-05-14T18:36:43.075Z,46.50
2018-05-14T18:39:09.587Z,46.50
2018-05-14T18:41:36.132Z,46.80
2018-05-14T18:44:02.790Z,46.90
2018-05-14T18:46:30.192Z,47.40
2018-05-14T18:48:56.831Z,47.30
2018-05-14T18:51:24.004Z,47.70
2018-05-14T18:53:50.559Z,47.70
2018-05-14T18:56:17.740Z,48.10
2018-05-14T18:58:46.480Z,48.20
2018-05-14T19:01:13.100Z,48.20
2018-05-14T19:03:39.556Z,48.40
2018-05-14T19:06:06.940Z,48.60
2018-05-14T19:08:34.285Z,48.60
2018-05-14T19:11:07.108Z,48.60
2018-05-14T19:13:33.561Z,49.30
2018-05-14T19:16:06.955Z,49.40
2018-05-14T19:18:33.529Z,49.30
2018-05-14T19:21:00.807Z,50.00
2018-05-14T19:23:34.226Z,50.30
2018-05-14T19:26:01.439Z,50.20
2018-05-14T19:28:34.043Z,50.40
2018-05-14T19:31:00.574Z,50.40
2018-05-14T19:36:24.982Z,50.50
2018-05-14T19:38:51.616Z,50.50
2018-05-14T19:41:20.221Z,50.60
2018-05-14T19:43:46.700Z,50.60
2018-05-14T19:46:13.193Z,50.70
2018-05-14T19:48:40.370Z,50.80
2018-05-14T19:51:06.866Z,51.00
2018-05-14T19:53:34.139Z,51.30
2018-05-14T19:56:01.462Z,51.60
2018-05-14T19:58:27.972Z,51.60
2018-05-14T20:00:55.189Z,51.80
2018-05-14T20:03:21.794Z,52.00
2018-05-14T20:05:51.793Z,52.50
2018-05-14T20:08:18.462Z,52.50
2018-05-14T20:10:45.735Z,52.90
2018-05-14T20:13:12.214Z,52.90
2018-05-14T20:15:41.762Z,53.50
2018-05-14T20:18:08.424Z,53.20
2018-05-14T20:20:34.883Z,53.40
2018-05-14T20:23:01.305Z,53.50
2018-05-14T20:25:27.994Z,53.70
2018-05-14T20:27:54.504Z,53.90
2018-05-14T20:30:20.933Z,54.10
2018-05-14T20:32:47.669Z,54.20
2018-05-14T20:35:14.881Z,54.40
2018-05-14T20:37:41.294Z,54.40
2018-05-14T20:40:07.794Z,54.50
2018-05-14T20:42:34.230Z,54.60
2018-05-14T20:45:00.872Z,54.60
2018-05-14T20:47:27.846Z,54.60
2018-05-14T20:49:54.605Z,54.60
2018-05-14T20:52:21.058Z,54.60
2018-05-14T20:54:48.319Z,54.70
2018-05-14T20:57:15.554Z,54.60
2018-05-14T20:59:42.295Z,54.70
2018-05-14T21:02:08.718Z,54.60
2018-05-14T21:04:35.999Z,54.70
2018-05-14T21:07:03.257Z,54.70
2018-05-14T21:09:29.717Z,54.70
2018-05-14T21:11:56.959Z,54.80
2018-05-14T21:14:23.413Z,54.70
2018-05-14T21:16:49.950Z,54.80
2018-05-14T21:19:16.405Z,54.90
2018-05-14T21:21:42.861Z,54.90
2018-05-14T21:24:09.302Z,54.80
2018-05-14T21:26:35.812Z,54.70
2018-05-14T21:29:02.298Z,54.60
2018-05-14T21:31:28.741Z,54.50
2018-05-14T21:33:55.872Z,55.10
2018-05-14T21:36:22.357Z,54.50
2018-05-14T21:38:48.798Z,54.40
2018-05-14T21:41:16.167Z,54.40
2018-05-14T21:43:42.593Z,54.40
2018-05-14T21:46:09.516Z,54.30
2018-05-14T21:48:35.959Z,54.40
2018-05-14T21:51:02.401Z,54.50
2018-05-14T21:53:28.827Z,54.50
2018-05-14T21:55:55.215Z,54.50
2018-05-14T21:58:21.617Z,54.50
2018-05-14T22:00:48.834Z,54.60
2018-05-14T22:03:15.254Z,54.60
2018-05-14T22:05:49.674Z,54.60
2018-05-14T22:08:16.831Z,54.50
2018-05-14T22:10:43.814Z,54.50
2018-05-14T22:13:10.986Z,54.60
2018-05-14T22:15:37.446Z,54.60
2018-05-14T22:18:04.630Z,54.80
2018-05-14T22:20:31.782Z,54.80
2018-05-14T22:22:58.964Z,55.50
2018-05-14T22:25:26.124Z,55.00
2018-05-14T22:27:52.554Z,55.00
2018-05-14T22:30:18.961Z,55.00
2018-05-14T22:32:45.508Z,55.10
2018-05-14T22:35:12.684Z,55.40
2018-05-14T22:37:39.840Z,55.40
2018-05-14T22:40:07.051Z,55.60
2018-05-14T22:42:33.583Z,55.60
2018-05-14T22:45:00.783Z,55.90
2018-05-14T22:47:27.209Z,55.80
2018-05-14T22:49:54.374Z,56.10
2018-05-14T22:52:21.588Z,56.10
2018-05-14T22:54:48.008Z,56.10
2018-05-14T22:57:15.351Z,56.10
2018-05-14T22:59:41.769Z,56.10
2018-05-14T23:02:08.305Z,56.10
2018-05-14T23:04:35.455Z,56.10
2018-05-14T23:07:03.125Z,56.10
2018-05-14T23:09:29.616Z,56.20
2018-05-14T23:11:56.789Z,56.50
2018-05-14T23:14:23.947Z,56.70
2018-05-14T23:16:51.236Z,56.90
2018-05-14T23:19:17.669Z,56.80
2018-05-14T23:21:44.102Z,57.00
2018-05-14T23:24:10.568Z,57.10
2018-05-14T23:26:37.782Z,57.30
2018-05-14T23:29:04.240Z,57.30
2018-05-14T23:31:30.668Z,57.40
2018-05-14T23:33:57.186Z,57.40
2018-05-14T23:36:23.595Z,57.40
2018-05-14T23:38:50.883Z,57.60
2018-05-14T23:41:17.332Z,57.50
2018-05-14T23:43:44.507Z,57.70
2018-05-14T23:46:11.659Z,57.90
2018-05-14T23:48:38.052Z,57.90
2018-05-14T23:51:04.456Z,58.10
2018-05-14T23:53:30.921Z,58.10
2018-05-14T23:55:57.325Z,58.20
2018-05-14T23:58:23.855Z,58.40
